TimeCET,TemperatureF,Dew PointF,Humidity,Sea Level PressureIn,VisibilityMPH,Wind Direction,Wind SpeedMPH,Gust SpeedMPH,PrecipitationIn,Events,Conditions,WindDirDegrees,DateUTC
12:15 AM,33.8,24.8,70,30.12,-9999.0,West,4.5,-,N/A,,Clear,280,2013-01-05 23:15:00
12:45 AM,28.4,23.0,80,30.12,-9999.0,WNW,4.5,-,N/A,,Clear,300,2013-01-05 23:45:00
1:15 AM,32.0,24.8,75,30.12,-9999.0,West,6.7,-,N/A,,Clear,280,2013-01-06 00:15:00
1:45 AM,28.4,24.8,86,30.12,-9999.0,WNW,6.7,-,N/A,,Clear,300,2013-01-06 00:45:00
2:15 AM,30.2,24.8,80,30.12,-9999.0,Calm,Calm,-,N/A,,Clear,0,2013-01-06 01:15:00
2:45 AM,30.2,24.8,80,30.12,-9999.0,WNW,2.2,-,N/A,,Clear,300,2013-01-06 01:45:00
3:15 AM,28.4,24.8,86,30.12,-9999.0,NW,4.5,-,N/A,,Clear,320,2013-01-06 02:15:00
3:45 AM,28.4,23.0,80,30.12,-9999.0,NW,4.5,-,N/A,,Clear,310,2013-01-06 02:45:00
4:15 AM,30.2,24.8,80,30.12,-9999.0,WNW,6.7,-,N/A,,Clear,290,2013-01-06 03:15:00
4:45 AM,28.4,23.0,80,30.12,-9999.0,WNW,6.7,-,N/A,,Clear,300,2013-01-06 03:45:00
5:45 AM,28.4,23.0,80,30.15,-9999.0,West,4.5,-,N/A,,Clear,280,2013-01-06 04:45:00
6:15 AM,28.4,24.8,86,30.15,-9999.0,WNW,6.7,-,N/A,,Clear,290,2013-01-06 05:15:00
6:45 AM,28.4,23.0,80,30.15,-9999.0,WNW,6.7,-,N/A,,Clear,290,2013-01-06 05:45:00
7:15 AM,26.6,23.0,86,30.15,-9999.0,WNW,4.5,-,N/A,,Clear,290,2013-01-06 06:15:00
7:45 AM,26.6,24.8,93,30.18,-9999.0,WNW,4.5,-,N/A,,Clear,290,2013-01-06 06:45:00
8:15 AM,28.4,24.8,86,30.18,-9999.0,Calm,Calm,-,N/A,,Clear,0,2013-01-06 07:15:00
8:45 AM,-9999,-9999,N/A,-9999,6.2,West,6.7,-,N/A,,Overcast,280,2013-01-06 07:45:00
9:15 AM,32.0,28.4,87,30.18,-9999.0,Calm,Calm,-,N/A,,Clear,0,2013-01-06 08:15:00
9:45 AM,33.8,26.6,75,30.18,-9999.0,Calm,Calm,-,N/A,,Clear,0,2013-01-06 08:45:00
10:15 AM,33.8,26.6,75,30.18,-9999.0,NW,2.2,-,N/A,,Clear,320,2013-01-06 09:15:00
10:45 AM,33.8,26.6,75,30.18,-9999.0,NW,2.2,-,N/A,,Clear,310,2013-01-06 09:45:00
11:15 AM,33.8,26.6,75,30.15,-9999.0,WNW,4.5,-,N/A,,Clear,290,2013-01-06 10:15:00
11:45 AM,-9999,-9999,N/A,-9999,6.2,WNW,6.7,-,N/A,,Overcast,300,2013-01-06 10:45:00
12:15 PM,35.6,26.6,70,30.12,-9999.0,WNW,4.5,-,N/A,,Clear,290,2013-01-06 11:15:00
12:45 PM,35.6,24.8,65,30.12,-9999.0,WNW,4.5,-,N/A,,Clear,290,2013-01-06 11:45:00
1:15 PM,35.6,24.8,65,30.09,-9999.0,West,4.5,-,N/A,,Clear,280,2013-01-06 12:15:00
1:45 PM,35.6,24.8,65,30.09,-9999.0,WNW,4.5,-,N/A,,Clear,290,2013-01-06 12:45:00
2:15 PM,35.6,24.8,65,30.09,-9999.0,West,2.2,-,N/A,,Clear,280,2013-01-06 13:15:00
2:45 PM,-9999,-9999,N/A,-9999,6.2,WNW,6.7,-,N/A,,Overcast,300,2013-01-06 13:45:00
3:15 PM,35.6,24.8,65,30.06,6.2,WSW,4.5,-,N/A,,Overcast,250,2013-01-06 14:15:00
3:33 PM,35.6,24.8,65,30.06,5.0,WSW,4.5,-,N/A,Snow,Snow,250,2013-01-06 14:33:00
3:45 PM,35.6,26.6,70,30.06,3.7,West,4.5,-,N/A,Snow,Light Snow,260,2013-01-06 14:45:00
3:55 PM,33.8,28.4,81,30.06,1.9,WNW,8.9,-,N/A,Snow,Snow,290,2013-01-06 14:55:00
4:15 PM,32.0,30.2,93,30.06,0.6,WNW,6.7,-,N/A,Snow,Snow,290,2013-01-06 15:15:00
4:25 PM,-9999,-9999,N/A,-9999,6.2,WNW,6.7,-,N/A,,Overcast,300,2013-01-06 15:25:00
4:45 PM,32.0,32.0,100,30.04,0.6,West,6.7,-,N/A,Snow,Snow,280,2013-01-06 15:45:00
5:15 PM,32.0,32.0,100,30.04,0.6,WSW,6.7,-,N/A,Snow,Snow,250,2013-01-06 16:15:00
5:45 PM,-9999,-9999,N/A,-9999,3.1,West,6.7,-,N/A,,Overcast,260,2013-01-06 16:45:00
6:15 PM,32.0,32.0,100,30.04,0.6,West,8.9,-,N/A,Snow,Snow,270,2013-01-06 17:15:00
6:45 PM,32.0,32.0,100,30.01,0.6,West,8.9,-,N/A,Snow,Snow,270,2013-01-06 17:45:00
7:15 PM,32.0,32.0,100,30.01,0.6,West,8.9,-,N/A,Snow,Snow,270,2013-01-06 18:15:00
7:45 PM,32.0,32.0,100,30.01,0.6,West,8.9,-,N/A,Snow,Snow,270,2013-01-06 18:45:00
8:15 PM,32.0,32.0,100,30.01,0.6,West,4.5,-,N/A,Snow,Snow,260,2013-01-06 19:15:00
8:45 PM,-9999,-9999,N/A,-9999,3.1,West,6.7,-,N/A,,Mostly Cloudy,270,2013-01-06 19:45:00
9:15 PM,32.0,32.0,100,29.98,1.2,West,4.5,-,N/A,Snow,Light Snow,270,2013-01-06 20:15:00
9:35 PM,32.0,32.0,100,29.98,1.9,West,4.5,-,N/A,Snow,Light Snow,280,2013-01-06 20:35:00
9:45 PM,32.0,32.0,100,29.98,2.5,West,4.5,-,N/A,Snow,Light Snow,270,2013-01-06 20:45:00
10:15 PM,32.0,32.0,100,29.98,2.5,WNW,2.2,-,N/A,Snow,Light Snow,300,2013-01-06 21:15:00
10:34 PM,32.0,32.0,100,29.98,3.1,NNW,2.2,-,N/A,Snow,Light Snow,330,2013-01-06 21:34:00
10:45 PM,32.0,32.0,100,29.98,3.1,WNW,2.2,-,N/A,Snow,Light Snow,300,2013-01-06 21:45:00
11:15 PM,32.0,32.0,100,29.98,3.1,Calm,Calm,-,N/A,,Overcast,0,2013-01-06 22:15:00
11:45 PM,-9999,-9999,N/A,-9999,5.0,North,-9999.0,-,N/A,,Overcast,0,2013-01-06 22:45:00